Time;durP1;ratioP1;P1;durP2;ratioP2;P2;SDS_P1;SDS_P2;PMS_P1;PMS_P2;Temp;Humidity;BMP_temperature;BMP_pressure;BME280_temperature;BME280_humidity;BME280_pressure;Samples;Min_cycle;Max_cycle;Signal;HPM_P1;HPM_P2
2022/12/30 00:00:15;;;;;;;;;6.50;5.50;;;;;10.00;66.69;100831.69;5033998;28;46081;-66
2022/12/30 00:02:41;;;;;;;;;8.00;5.50;;;;;10.05;66.84;100838.06;5032654;28;45369;-65
2022/12/30 00:05:06;;;;;;;;;15.25;9.75;;;;;10.12;66.74;100850.72;5023238;28;45730;-65
2022/12/30 00:07:35;;;;;;;;;7.00;4.00;;;;;10.09;67.19;100849.72;5031107;28;45364;-67
2022/12/30 00:10:03;;;;;;;;;6.00;6.00;;;;;10.02;66.96;100843.31;5031737;28;46319;-66
2022/12/30 00:35:06;;;;;;;;;11.50;6.25;;;;;9.82;67.57;100824.03;5020571;28;45504;-66
2022/12/30 00:37:31;;;;;;;;;18.75;18.50;;;;;9.86;67.51;100825.03;5025861;28;45469;-66
2022/12/30 00:39:57;;;;;;;;;15.00;11.25;;;;;9.78;67.90;100812.38;5026522;28;45586;-66
2022/12/30 00:45:06;;;;;;;;;8.50;8.00;;;;;9.86;67.69;100817.91;5032104;28;45450;-66
2022/12/30 00:47:33;;;;;;;;;7.00;6.00;;;;;9.82;67.79;100817.78;5026900;28;45382;-67
2022/12/30 00:58:11;;;;;;;;;7.00;5.50;;;;;9.72;68.05;100812.16;5024175;28;45399;-67
2022/12/30 01:00:36;;;;;;;;;11.50;8.50;;;;;9.73;67.83;100811.31;5035899;28;45489;-66
2022/12/30 01:03:02;;;;;;;;;6.25;6.25;;;;;9.72;67.92;100801.50;5034958;28;46948;-66
2022/12/30 01:05:27;;;;;;;;;41.50;31.75;;;;;9.71;67.71;100801.44;5025219;28;45526;-67
2022/12/30 01:07:52;;;;;;;;;11.25;7.75;;;;;9.49;67.66;100762.56;5031398;28;45749;-67
2022/12/30 01:10:18;;;;;;;;;7.25;6.00;;;;;9.69;67.71;100789.84;5027132;28;53208;-66
2022/12/30 01:12:43;;;;;;;;;7.00;5.00;;;;;9.77;67.46;100798.97;5029544;28;45359;-65
2022/12/30 01:15:09;;;;;;;;;9.50;4.50;;;;;9.74;67.48;100798.88;5028162;28;45488;-67
2022/12/30 01:17:35;;;;;;;;;3.25;3.25;;;;;9.67;67.54;100784.44;5028203;28;45486;-65
2022/12/30 01:20:00;;;;;;;;;9.50;4.00;;;;;9.72;67.67;100793.50;5032572;28;45337;-66
2022/12/30 01:22:26;;;;;;;;;5.50;4.00;;;;;9.71;67.06;100796.09;5031575;28;45406;-69
2022/12/30 01:24:51;;;;;;;;;8.00;5.25;;;;;9.40;67.46;100740.06;5027492;28;45505;-68
2022/12/30 01:27:17;;;;;;;;;6.00;4.50;;;;;9.58;67.91;100785.03;5035246;28;45912;-68
2022/12/30 01:29:45;;;;;;;;;7.00;4.50;;;;;9.54;68.38;100787.59;5009454;28;45391;-67
2022/12/30 01:32:13;;;;;;;;;7.25;5.25;;;;;9.57;68.29;100783.25;5026704;28;45658;-67
2022/12/30 01:34:39;;;;;;;;;5.00;2.50;;;;;9.61;67.87;100788.69;5031449;28;45593;-66
2022/12/30 01:37:05;;;;;;;;;3.00;2.33;;;;;9.59;67.70;100775.31;5023655;28;45389;-66
2022/12/30 01:39:31;;;;;;;;;3.75;3.75;;;;;9.62;68.34;100793.16;5030391;28;45502;-68
2022/12/30 01:41:57;;;;;;;;;7.00;5.75;;;;;9.56;67.45;100792.09;5035330;28;45449;-68
2022/12/30 01:44:48;;;;;;;;;5.00;2.75;;;;;9.54;68.33;100793.81;5029661;28;45337;-67
2022/12/30 01:47:42;;;;;;;;;4.00;3.00;;;;;9.52;68.28;100790.22;5011636;28;45555;-66
2022/12/30 01:50:10;;;;;;;;;6.00;6.00;;;;;9.54;68.41;100793.81;5023366;28;45672;-67
2022/12/30 01:52:39;;;;;;;;;5.50;3.00;;;;;9.49;68.47;100779.44;5025383;28;46009;-66
2022/12/30 01:55:10;;;;;;;;;5.67;3.00;;;;;9.48;67.78;100785.63;5036496;28;45583;-66
2022/12/30 01:57:39;;;;;;;;;7.67;7.67;;;;;9.44;68.30;100778.41;5024986;28;45454;-68
2022/12/30 02:00:07;;;;;;;;;5.50;4.25;;;;;9.47;67.80;100775.84;5033062;28;45353;-67
2022/12/30 02:02:32;;;;;;;;;13.00;3.00;;;;;9.50;67.89;100772.34;5015846;28;48519;-68
2022/12/30 02:05:00;;;;;;;;;7.00;5.00;;;;;9.48;68.10;100779.41;5032858;28;54055;-69
2022/12/30 02:07:32;;;;;;;;;7.75;5.50;;;;;9.44;68.33;100769.47;5036393;28;45522;-71
2022/12/30 02:09:59;;;;;;;;;8.00;6.00;;;;;9.43;67.90;100784.56;5033370;28;45303;-68
2022/12/30 02:12:24;;;;;;;;;7.00;5.75;;;;;9.39;68.09;100783.59;5023162;28;46188;-68
2022/12/30 02:14:50;;;;;;;;;6.00;4.75;;;;;9.38;68.41;100781.75;5035294;28;45342;-68
2022/12/30 02:17:32;;;;;;;;;5.75;5.25;;;;;9.35;68.67;100779.00;5028663;28;45448;-68
2022/12/30 02:20:25;;;;;;;;;3.00;3.00;;;;;9.33;68.06;100777.16;5028213;28;45514;-67
2022/12/30 02:23:22;;;;;;;;;7.50;6.75;;;;;9.26;69.46;100780.50;5028961;28;46360;-67
2022/12/30 02:26:02;;;;;;;;;7.00;5.00;;;;;9.22;68.91;100776.78;5025974;28;45514;-66
2022/12/30 02:28:50;;;;;;;;;13.00;7.00;;;;;9.18;69.77;100781.13;5029521;28;45405;-68
2022/12/30 02:31:22;;;;;;;;;10.50;7.00;;;;;9.14;69.40;100779.22;5011470;28;45423;-66
2022/12/30 02:33:47;;;;;;;;;8.50;7.00;;;;;9.12;69.46;100778.25;5033861;28;45585;-65
2022/12/30 02:36:28;;;;;;;;;5.75;5.25;;;;;8.85;69.56;100735.63;5029361;28;45490;-67
2022/12/30 02:39:14;;;;;;;;;7.00;6.25;;;;;9.02;70.47;100765.50;5017392;28;45312;-67
2022/12/30 02:44:46;;;;;;;;;8.00;7.50;;;;;8.93;71.05;100762.53;5035115;28;45578;-65
2022/12/30 02:47:32;;;;;;;;;10.75;8.50;;;;;8.93;70.71;100759.88;5023846;28;45400;-67
2022/12/30 02:52:48;;;;;;;;;10.25;6.00;;;;;8.89;71.26;100753.50;5035326;28;45471;-67
2022/12/30 02:55:15;;;;;;;;;8.25;6.00;;;;;8.94;71.50;100759.94;5028829;28;46509;-66
2022/12/30 02:57:40;;;;;;;;;7.50;5.25;;;;;8.89;71.72;100756.19;5031188;28;45423;-67
2022/12/30 03:06:51;;;;;;;;;6.50;6.50;;;;;8.87;73.04;100738.34;5029005;28;45774;-66
2022/12/30 03:09:28;;;;;;;;;8.75;6.50;;;;;8.90;71.97;100731.34;5028980;28;45631;-66
2022/12/30 03:11:53;;;;;;;;;7.25;5.50;;;;;8.97;72.50;100728.03;5023143;28;45365;-66
2022/12/30 03:14:30;;;;;;;;;8.00;6.75;;;;;8.96;72.62;100723.56;5026468;28;45332;-67
2022/12/30 03:17:12;;;;;;;;;15.25;9.50;;;;;8.99;72.54;100725.41;5028407;28;46562;-67
2022/12/30 03:19:44;;;;;;;;;9.75;9.75;;;;;8.87;72.31;100683.28;5027891;28;45544;-68
2022/12/30 03:27:03;;;;;;;;;8.50;8.50;;;;;9.04;73.09;100710.47;5022786;28;45467;-68
2022/12/30 03:27:46;;;;;;;;;12.00;6.25;;;;;8.94;72.49;100689.72;5028376;28;45703;-66
2022/12/30 03:30:12;;;;;;;;;7.00;7.00;;;;;9.04;72.68;100703.41;5029995;28;45394;-68
2022/12/30 03:32:38;;;;;;;;;10.00;7.00;;;;;9.03;72.37;100714.91;5022567;28;45413;-65
2022/12/30 03:35:05;;;;;;;;;9.00;8.00;;;;;9.01;72.87;100705.06;5029082;28;45434;-64
2022/12/30 03:37:35;;;;;;;;;10.50;10.00;;;;;8.90;73.56;100682.50;5031713;28;45955;-67
2022/12/30 03:40:34;;;;;;;;;11.25;9.25;;;;;9.04;73.23;100707.81;5024817;28;45309;-66
2022/12/30 03:43:01;;;;;;;;;5.50;5.25;;;;;9.10;72.92;100702.69;5018611;28;45439;-67
2022/12/30 03:45:27;;;;;;;;;9.75;6.00;;;;;9.12;72.47;100708.06;5022801;28;45510;-66
2022/12/30 03:47:52;;;;;;;;;9.25;9.00;;;;;9.04;73.56;100682.09;5016081;28;48217;-65
2022/12/30 03:50:18;;;;;;;;;11.75;6.00;;;;;8.99;73.32;100672.13;5033808;28;45498;-66
2022/12/30 03:52:43;;;;;;;;;8.00;6.50;;;;;9.10;73.35;100688.47;5017110;28;45622;-66
2022/12/30 03:55:09;;;;;;;;;15.00;7.25;;;;;9.09;73.11;100686.63;5028647;28;45377;-67
2022/12/30 03:57:36;;;;;;;;;9.00;6.00;;;;;9.06;73.25;100662.56;5027555;28;45455;-66
2022/12/30 04:00:02;;;;;;;;;10.00;6.25;;;;;9.14;72.98;100677.94;5027952;28;45932;-66
2022/12/30 04:02:27;;;;;;;;;7.00;6.00;;;;;9.14;72.90;100666.34;5022630;28;45395;-66
2022/12/30 04:04:53;;;;;;;;;9.00;7.25;;;;;9.16;73.43;100665.56;5029499;28;45467;-67
2022/12/30 04:07:19;;;;;;;;;5.00;4.75;;;;;9.07;72.92;100643.94;5024562;28;46661;-67
2022/12/30 04:09:44;;;;;;;;;7.50;5.00;;;;;9.11;72.29;100640.53;5029075;28;45500;-66
2022/12/30 04:12:10;;;;;;;;;7.00;5.00;;;;;9.08;72.71;100642.22;5021630;28;45521;-67
2022/12/30 04:14:35;;;;;;;;;6.50;5.00;;;;;9.12;73.50;100644.09;5025008;28;45400;-67
2022/12/30 04:17:00;;;;;;;;;5.25;4.25;;;;;9.09;72.68;100650.25;5023867;28;46359;-66
2022/12/30 04:19:26;;;;;;;;;4.00;3.00;;;;;9.10;73.25;100651.16;5026321;28;45434;-66
2022/12/30 04:21:51;;;;;;;;;7.25;4.00;;;;;9.00;73.24;100621.53;5040751;28;45470;-67
2022/12/30 04:24:18;;;;;;;;;8.50;4.75;;;;;9.07;73.44;100643.06;5016354;28;45516;-67
2022/12/30 04:26:43;;;;;;;;;6.00;4.75;;;;;9.10;73.12;100652.03;5019886;28;46175;-66
2022/12/30 04:29:09;;;;;;;;;5.25;5.00;;;;;9.11;73.70;100643.19;5023368;28;60236;-66
2022/12/30 04:31:34;;;;;;;;;9.50;4.00;;;;;9.02;74.08;100634.91;5026101;28;45716;-67
2022/12/30 04:34:00;;;;;;;;;10.00;6.00;;;;;9.11;73.88;100640.53;5041438;28;46203;-68
2022/12/30 04:36:25;;;;;;;;;6.25;6.00;;;;;9.00;73.62;100620.66;5026627;28;45518;-67
2022/12/30 04:38:50;;;;;;;;;8.00;6.00;;;;;9.15;73.81;100647.75;5014519;28;45426;-66
2022/12/30 04:41:18;;;;;;;;;7.25;6.25;;;;;9.14;74.09;100639.69;5033640;28;44879;-67
2022/12/30 04:43:43;;;;;;;;;8.25;5.75;;;;;9.17;74.19;100639.81;5032628;28;45288;-66
2022/12/30 04:46:09;;;;;;;;;8.00;6.00;;;;;9.14;73.83;100637.03;5031997;28;46940;-66
2022/12/30 04:48:34;;;;;;;;;5.00;5.00;;;;;9.08;73.72;100620.88;5027895;28;45488;-67
2022/12/30 04:50:59;;;;;;;;;9.75;6.00;;;;;9.09;74.23;100615.59;5026868;28;45395;-66
2022/12/30 04:53:25;;;;;;;;;5.50;5.50;;;;;9.10;73.76;100621.84;5032943;28;45560;-67
2022/12/30 04:55:55;;;;;;;;;10.00;5.75;;;;;9.08;74.46;100613.78;5032667;28;45712;-66
2022/12/30 04:58:21;;;;;;;;;6.50;5.00;;;;;9.14;74.25;100613.06;5032338;28;45292;-67
2022/12/30 05:00:48;;;;;;;;;6.50;6.00;;;;;9.11;74.31;100591.66;5032547;28;45470;-67
2022/12/30 05:03:13;;;;;;;;;8.25;6.00;;;;;9.15;74.07;100598.88;5030871;28;45438;-66
2022/12/30 05:05:39;;;;;;;;;7.75;7.75;;;;;9.11;74.30;100591.66;5022375;28;45356;-70
2022/12/30 05:08:05;;;;;;;;;11.00;6.00;;;;;9.00;74.87;100573.56;5029316;28;45359;-68
2022/12/30 05:10:33;;;;;;;;;13.75;9.75;;;;;9.18;74.74;100590.97;5026823;28;45515;-66
2022/12/30 05:12:58;;;;;;;;;5.00;4.00;;;;;9.13;74.10;100552.63;4998932;28;45625;-66
2022/12/30 05:15:24;;;;;;;;;5.75;5.50;;;;;9.30;73.75;100579.75;5029797;28;46117;-66
2022/12/30 05:17:49;;;;;;;;;6.25;6.25;;;;;9.35;74.03;100556.81;5019926;28;45487;-71
2022/12/30 05:20:14;;;;;;;;;5.00;4.75;;;;;9.25;73.64;100525.41;5028278;28;45432;-65
2022/12/30 05:22:40;;;;;;;;;6.00;4.00;;;;;9.21;74.69;100525.31;5020200;28;45724;-66
2022/12/30 05:27:49;;;;;;;;;5.00;4.75;;;;;9.35;74.18;100539.03;5028029;28;45387;-65
2022/12/30 05:30:15;;;;;;;;;6.50;6.50;;;;;9.33;74.61;100538.09;5024884;28;45486;-65
2022/12/30 05:32:40;;;;;;;;;4.33;4.00;;;;;9.36;74.52;100534.63;5025209;28;45362;-70
2022/12/30 05:35:06;;;;;;;;;10.00;4.75;;;;;9.38;73.82;100539.13;5034551;28;46443;-67
2022/12/30 05:37:32;;;;;;;;;6.50;4.25;;;;;9.40;74.60;100536.50;5029510;28;45543;-67
2022/12/30 05:39:57;;;;;;;;;6.25;4.00;;;;;9.34;74.14;100531.91;5027406;28;45970;-66
2022/12/30 05:42:22;;;;;;;;;6.75;5.00;;;;;9.36;74.87;100521.28;5030375;28;45527;-67
2022/12/30 05:44:48;;;;;;;;;8.75;4.50;;;;;9.40;74.39;100516.09;5031586;28;45552;-66
2022/12/30 05:47:13;;;;;;;;;9.25;4.00;;;;;9.46;74.69;100514.44;5036013;28;45478;-65
2022/12/30 05:49:38;;;;;;;;;10.50;4.25;;;;;9.50;74.53;100505.66;5035882;28;45327;-67
2022/12/30 05:52:04;;;;;;;;;5.25;3.00;;;;;9.53;74.56;100497.75;5018338;28;45422;-66
2022/12/30 05:54:29;;;;;;;;;11.00;4.00;;;;;9.44;74.15;100485.06;5024396;28;48048;-67
2022/12/30 05:56:54;;;;;;;;;5.00;3.50;;;;;9.42;74.16;100470.81;5034242;28;45383;-65
2022/12/30 05:59:20;;;;;;;;;4.00;3.50;;;;;9.55;73.49;100478.25;5033895;28;45486;-67
2022/12/30 06:01:45;;;;;;;;;6.75;2.75;;;;;9.50;74.51;100466.56;5030577;28;45443;-66
2022/12/30 06:04:11;;;;;;;;;8.33;5.00;;;;;9.61;73.87;100468.63;5029454;28;46461;-66
2022/12/30 06:06:36;;;;;;;;;4.25;4.25;;;;;9.66;74.23;100458.97;5032089;28;45526;-66
2022/12/30 06:09:01;;;;;;;;;4.33;3.00;;;;;9.67;74.23;100461.66;5033842;28;49254;-67
2022/12/30 06:11:27;;;;;;;;;5.75;2.75;;;;;9.66;74.33;100451.84;5030508;28;45755;-67
2022/12/30 06:13:52;;;;;;;;;2.00;1.00;;;;;9.66;74.05;100448.28;5030315;28;45413;-66
2022/12/30 06:16:17;;;;;;;;;6.25;2.25;;;;;9.61;73.87;100423.28;5014304;28;45511;-66
2022/12/30 06:18:43;;;;;;;;;4.50;2.25;;;;;9.72;74.35;100438.66;5026263;28;45664;-66
2022/12/30 06:21:08;;;;;;;;;4.50;3.00;;;;;9.69;74.44;100437.69;5027983;28;45447;-67
2022/12/30 06:23:33;;;;;;;;;8.00;5.00;;;;;9.70;74.29;100427.06;5033910;28;46301;-67
2022/12/30 06:25:59;;;;;;;;;6.75;4.00;;;;;9.75;74.83;100420.06;5026545;28;45511;-66
2022/12/30 06:28:26;;;;;;;;;4.75;4.00;;;;;9.80;73.67;100416.59;5034557;28;45308;-66
2022/12/30 06:30:52;;;;;;;;;3.00;2.25;;;;;9.68;73.98;100393.19;5029618;28;45287;-66
2022/12/30 06:33:18;;;;;;;;;5.50;4.75;;;;;9.81;73.96;100399.75;5028519;28;45536;-67
2022/12/30 06:35:44;;;;;;;;;3.00;3.00;;;;;9.88;74.07;100402.59;5029482;28;45530;-66
2022/12/30 06:38:09;;;;;;;;;6.50;3.50;;;;;9.88;74.51;100394.59;5030114;28;45633;-65
2022/12/30 06:40:35;;;;;;;;;3.50;2.50;;;;;9.89;73.78;100377.69;5030121;28;45473;-67
2022/12/30 06:43:00;;;;;;;;;8.75;4.75;;;;;9.90;74.35;100370.59;5031969;28;46418;-69
2022/12/30 06:45:26;;;;;;;;;3.00;3.00;;;;;9.94;74.46;100370.69;5025457;28;45387;-66
2022/12/30 06:47:51;;;;;;;;;6.25;3.25;;;;;9.99;73.87;100354.78;5028892;28;45431;-65
2022/12/30 06:50:17;;;;;;;;;8.00;4.75;;;;;9.99;73.96;100356.56;4998527;28;45429;-65
2022/12/30 06:52:42;;;;;;;;;7.50;5.25;;;;;9.94;73.34;100329.78;5027610;28;45395;-67
2022/12/30 06:55:08;;;;;;;;;4.00;4.00;;;;;10.03;74.01;100340.66;5017332;28;45545;-67
2022/12/30 06:57:34;;;;;;;;;4.00;4.00;;;;;9.96;73.22;100333.38;5033184;28;45564;-67
2022/12/30 07:00:00;;;;;;;;;8.25;6.50;;;;;9.95;73.68;100328.94;5001189;28;45439;-65
2022/12/30 07:02:25;;;;;;;;;6.75;4.50;;;;;9.86;73.52;100302.03;5022792;28;45497;-68
2022/12/30 07:04:51;;;;;;;;;3.00;3.00;;;;;10.06;73.31;100326.47;5031072;28;45427;-66
2022/12/30 07:07:16;;;;;;;;;9.25;4.25;;;;;10.07;73.48;100320.28;5029333;28;45678;-67
2022/12/30 07:09:42;;;;;;;;;8.75;6.25;;;;;10.10;73.84;100315.91;5022093;28;45390;-67
2022/12/30 07:12:07;;;;;;;;;6.50;5.50;;;;;10.08;73.37;100298.97;5030746;28;45526;-67
2022/12/30 07:14:33;;;;;;;;;4.25;2.75;;;;;10.11;73.04;100288.34;5021887;28;45373;-66
2022/12/30 07:16:58;;;;;;;;;4.25;3.00;;;;;10.15;73.23;100295.53;5029766;28;45383;-67
2022/12/30 07:19:25;;;;;;;;;3.00;3.00;;;;;9.93;73.00;100251.50;5034917;28;45604;-68
2022/12/30 07:21:50;;;;;;;;;6.50;5.00;;;;;10.03;73.06;100257.94;5028703;28;47144;-66
2022/12/30 07:24:16;;;;;;;;;4.00;2.00;;;;;10.21;72.70;100276.06;5033117;28;45461;-66
2022/12/30 07:26:41;;;;;;;;;4.75;1.50;;;;;10.22;72.89;100263.63;5022964;28;45332;-69
2022/12/30 07:29:06;;;;;;;;;4.67;3.00;;;;;10.24;72.83;100267.22;5023926;28;45482;-69
2022/12/30 07:31:32;;;;;;;;;4.00;2.67;;;;;10.20;72.46;100254.72;5004299;28;46295;-68
2022/12/30 07:33:57;;;;;;;;;6.33;3.00;;;;;10.24;72.79;100262.78;5028274;28;45625;-68
2022/12/30 07:36:23;;;;;;;;;6.33;2.33;;;;;10.19;72.36;100239.53;5028078;28;45390;-68
2022/12/30 07:38:48;;;;;;;;;4.00;2.50;;;;;10.30;72.56;100262.91;5033895;28;45577;-69
2022/12/30 07:41:13;;;;;;;;;5.33;3.00;;;;;10.30;72.18;100251.34;5027738;28;45791;-69
2022/12/30 07:43:39;;;;;;;;;4.00;2.33;;;;;10.30;72.40;100241.56;5021039;28;45612;-67
2022/12/30 07:46:06;;;;;;;;;2.00;2.00;;;;;10.30;72.64;100229.97;5004929;28;45398;-67
2022/12/30 07:48:32;;;;;;;;;2.00;2.00;;;;;10.37;71.60;100247.06;5022799;28;45428;-67
2022/12/30 07:50:57;;;;;;;;;3.33;2.00;;;;;10.39;71.79;100239.97;5033744;28;46073;-66
2022/12/30 07:53:23;;;;;;;;;4.33;3.00;;;;;10.36;71.75;100230.13;5022427;28;45312;-68
2022/12/30 07:55:48;;;;;;;;;1.00;1.00;;;;;10.43;71.68;100241.84;5031992;28;45449;-69
2022/12/30 07:58:13;;;;;;;;;6.00;2.00;;;;;10.49;71.30;100242.84;5030776;28;45499;-68
2022/12/30 08:00:39;;;;;;;;;6.00;5.00;;;;;10.48;70.97;100249.03;5024005;28;45349;-68
2022/12/30 08:03:04;;;;;;;;;2.00;2.00;;;;;10.50;71.09;100249.06;5030396;28;45419;-69
2022/12/30 08:05:30;;;;;;;;;4.00;2.33;;;;;10.48;70.65;100249.03;5030619;28;45501;-70
2022/12/30 08:07:55;;;;;;;;;4.33;2.67;;;;;10.46;70.50;100236.53;5031708;28;45462;-67
2022/12/30 08:10:20;;;;;;;;;3.00;2.00;;;;;10.49;70.60;100226.81;5014130;28;46758;-65
2022/12/30 08:12:46;;;;;;;;;3.67;1.00;;;;;10.55;70.51;100228.69;5027396;28;45414;-67
2022/12/30 08:15:12;;;;;;;;;5.33;4.00;;;;;10.58;70.43;100225.19;5022105;28;45639;-69
2022/12/30 08:17:38;;;;;;;;;2.33;1.00;;;;;10.57;70.09;100204.69;5028700;28;45746;-67
2022/12/30 08:20:06;;;;;;;;;6.00;1.00;;;;;10.53;69.45;100202.84;5025801;28;46499;-67
2022/12/30 08:22:31;;;;;;;;;3.33;2.00;;;;;10.57;69.74;100202.00;5027906;28;45372;-67
2022/12/30 08:24:57;;;;;;;;;3.00;1.33;;;;;10.60;70.42;100196.72;5027148;28;45515;-69
2022/12/30 08:27:22;;;;;;;;;4.00;4.00;;;;;10.47;71.07;100175.13;5021720;28;45520;-65
2022/12/30 08:29:47;;;;;;;;;2.00;2.00;;;;;10.62;71.33;100192.28;5027766;28;45585;-68
2022/12/30 08:32:13;;;;;;;;;3.00;2.00;;;;;10.62;70.95;100206.53;5032627;28;45494;-68
2022/12/30 08:34:39;;;;;;;;;3.33;2.33;;;;;10.62;71.70;100192.28;4998114;28;45407;-68
2022/12/30 08:37:04;;;;;;;;;7.33;4.67;;;;;10.55;71.51;100169.03;5026895;28;45581;-68
2022/12/30 08:39:30;;;;;;;;;4.00;3.00;;;;;10.48;71.23;100160.91;5021853;28;55294;-69
2022/12/30 08:41:55;;;;;;;;;3.33;1.00;;;;;10.50;71.72;100161.81;5031722;28;45572;-67
2022/12/30 08:44:20;;;;;;;;;2.00;2.00;;;;;10.54;72.25;100173.47;5032577;28;45422;-68
2022/12/30 08:46:46;;;;;;;;;7.00;2.00;;;;;10.38;72.51;100140.28;5031029;28;45393;-68
2022/12/30 08:49:12;;;;;;;;;2.33;2.33;;;;;10.49;72.67;100156.47;5033461;28;46142;-66
2022/12/30 08:51:38;;;;;;;;;5.00;3.00;;;;;10.47;72.63;100147.53;5031753;28;45376;-65
2022/12/30 08:54:04;;;;;;;;;5.67;3.67;;;;;10.49;73.02;100153.78;5033338;28;45301;-66
2022/12/30 08:56:34;;;;;;;;;4.00;1.00;;;;;10.42;73.12;100131.41;5022983;28;45589;-66
2022/12/30 08:59:00;;;;;;;;;3.00;1.00;;;;;10.42;73.53;100122.53;5030383;28;45610;-66
2022/12/30 09:01:29;;;;;;;;;0.67;0.67;;;;;10.44;73.53;100128.78;5030017;28;45513;-67
2022/12/30 09:03:55;;;;;;;;;3.00;1.33;;;;;10.21;73.53;100061.59;5008147;28;45484;-66
2022/12/30 09:06:23;;;;;;;;;1.00;1.00;;;;;10.39;73.87;100123.34;5025637;28;45485;-70
2022/12/30 09:08:48;;;;;;;;;3.67;3.67;;;;;10.36;74.57;100115.31;5026569;28;45679;-68
2022/12/30 09:11:18;;;;;;;;;8.00;6.00;;;;;10.39;74.36;100106.44;5028404;28;45493;-66
2022/12/30 09:13:44;;;;;;;;;5.75;4.50;;;;;10.28;74.27;100074.22;5027928;28;45484;-69
2022/12/30 09:16:16;;;;;;;;;6.33;2.67;;;;;10.34;74.86;100087.66;5028574;28;45341;-67
2022/12/30 09:18:41;;;;;;;;;1.33;1.33;;;;;10.17;74.60;100062.44;5034563;28;46074;-67
2022/12/30 09:21:07;;;;;;;;;2.00;2.00;;;;;10.23;75.65;100066.13;5028559;28;45333;-68
2022/12/30 09:23:33;;;;;;;;;2.00;2.00;;;;;10.15;75.68;100046.41;5035110;28;45394;-68
2022/12/30 09:25:58;;;;;;;;;1.67;1.33;;;;;10.31;75.81;100066.22;4989508;28;45527;-69
2022/12/30 09:28:25;;;;;;;;;3.00;2.33;;;;;10.21;76.02;100058.94;5017931;28;46348;-67
2022/12/30 09:30:50;;;;;;;;;4.00;2.33;;;;;10.22;76.03;100076.75;5025509;28;45403;-68
2022/12/30 09:33:16;;;;;;;;;4.50;4.50;;;;;10.21;75.50;100065.16;5035658;28;45589;-66
2022/12/30 09:35:41;;;;;;;;;2.00;2.00;;;;;10.26;75.63;100071.50;5024558;28;45497;-67
2022/12/30 09:38:07;;;;;;;;;3.67;2.33;;;;;10.24;75.95;100070.56;5011029;28;46389;-67
2022/12/30 09:40:48;;;;;;;;;6.25;5.25;;;;;10.28;76.23;100055.53;5023477;28;47497;-68
2022/12/30 09:43:40;;;;;;;;;6.50;5.00;;;;;10.26;76.35;100060.84;5030023;28;45484;-65
2022/12/30 09:46:38;;;;;;;;;2.33;2.33;;;;;10.25;76.69;100028.78;4982770;28;45607;-66
2022/12/30 09:49:27;;;;;;;;;3.00;1.00;;;;;10.30;76.65;100029.72;5011678;28;46103;-67
2022/12/30 09:52:04;;;;;;;;;3.00;3.00;;;;;10.29;76.69;100030.59;5022280;28;45519;-68
2022/12/30 09:54:39;;;;;;;;;7.00;2.00;;;;;10.26;77.35;100039.47;5031590;28;45534;-65
2022/12/30 09:59:55;;;;;;;;;4.00;3.00;;;;;10.32;77.76;100038.69;5033167;28;46114;-68
2022/12/30 10:02:27;;;;;;;;;3.00;2.33;;;;;10.32;78.15;100015.56;5033050;28;45406;-67
2022/12/30 10:04:54;;;;;;;;;2.33;1.33;;;;;10.37;78.08;99996.03;5016150;28;45479;-66
2022/12/30 10:07:34;;;;;;;;;2.33;2.33;;;;;10.37;77.85;99991.59;5032169;28;45609;-67
2022/12/30 10:10:09;;;;;;;;;1.00;1.00;;;;;10.38;78.16;99995.16;5035424;28;45492;-67
2022/12/30 10:13:07;;;;;;;;;3.00;3.00;;;;;10.36;78.60;99983.56;5022715;28;45707;-66
2022/12/30 10:15:35;;;;;;;;;2.33;2.33;;;;;10.38;78.75;99979.13;5028502;28;45300;-66
2022/12/30 10:18:13;;;;;;;;;4.00;2.67;;;;;10.34;79.33;99956.84;5030366;28;45711;-66
2022/12/30 10:20:51;;;;;;;;;4.00;2.67;;;;;10.34;79.40;99951.50;5032041;28;46299;-67
2022/12/30 10:23:41;;;;;;;;;5.67;2.00;;;;;10.35;79.94;99942.63;5027759;28;45570;-68
2022/12/30 10:26:21;;;;;;;;;4.00;4.00;;;;;10.17;80.30;99907.63;5032026;28;45511;-68
2022/12/30 10:28:59;;;;;;;;;4.00;2.00;;;;;10.23;79.84;99902.34;5011102;28;45659;-69
2022/12/30 10:31:28;;;;;;;;;2.33;2.33;;;;;10.25;79.94;99909.53;5022382;28;45478;-67
2022/12/30 10:33:59;;;;;;;;;2.67;2.00;;;;;10.41;79.95;99926.69;5023012;28;45364;-67
2022/12/30 10:36:40;;;;;;;;;6.67;2.33;;;;;10.35;80.17;99931.94;5035357;28;45589;-67
2022/12/30 10:39:33;;;;;;;;;5.00;2.00;;;;;10.45;80.42;99927.63;5023296;28;45393;-65
2022/12/30 10:42:29;;;;;;;;;3.00;3.00;;;;;10.44;80.70;99936.50;4996175;28;46618;-66
2022/12/30 10:45:06;;;;;;;;;2.75;2.00;;;;;10.55;80.76;99913.50;5013903;28;45363;-67
2022/12/30 10:47:50;;;;;;;;;2.67;1.67;;;;;10.58;80.87;99910.88;5035038;28;47206;-66
2022/12/30 10:50:20;;;;;;;;;4.00;1.33;;;;;10.60;81.08;99917.13;5032457;28;45608;-66
2022/12/30 10:52:46;;;;;;;;;1.67;1.67;;;;;10.53;81.66;99883.22;5024895;28;45446;-65
2022/12/30 10:55:24;;;;;;;;;3.33;3.33;;;;;10.72;81.52;99873.63;5016707;28;45792;-68
2022/12/30 10:57:57;;;;;;;;;1.00;1.00;;;;;10.79;81.08;99894.22;5032093;28;45570;-66
2022/12/30 11:00:22;;;;;;;;;3.00;1.33;;;;;10.82;81.51;99875.56;5028573;28;45462;-67
2022/12/30 11:03:02;;;;;;;;;2.33;2.33;;;;;10.86;81.87;99884.50;5029300;28;46989;-68
2022/12/30 11:05:38;;;;;;;;;1.00;1.00;;;;;10.92;81.86;99887.22;5029237;28;45478;-69
2022/12/30 11:08:06;;;;;;;;;5.00;2.00;;;;;10.96;81.42;99856.09;5010827;28;45471;-66
2022/12/30 11:10:32;;;;;;;;;0.00;0.00;;;;;10.92;81.52;99791.00;5030006;28;45593;-69
2022/12/30 11:16:00;;;;;;;;;1.00;1.00;;;;;11.05;81.31;99854.44;5027763;28;45277;-68
2022/12/30 11:18:28;;;;;;;;;4.00;2.67;;;;;11.06;81.73;99842.84;5028467;28;45488;-66
2022/12/30 11:20:59;;;;;;;;;2.33;2.33;;;;;11.11;81.09;99823.28;5029164;28;45764;-68
2022/12/30 11:23:36;;;;;;;;;2.00;2.00;;;;;11.15;81.77;99818.00;5028789;28;46219;-67
2022/12/30 11:26:06;;;;;;;;;2.00;2.00;;;;;11.18;80.58;99841.16;5022431;28;45428;-68
2022/12/30 11:28:36;;;;;;;;;2.33;2.33;;;;;11.20;82.04;99834.97;5027897;28;45575;-67
2022/12/30 11:31:07;;;;;;;;;1.33;1.00;;;;;11.20;81.62;99826.94;5029544;28;45486;-66
2022/12/30 11:33:39;;;;;;;;;6.33;5.33;;;;;11.30;81.95;99803.84;5007567;28;45438;-69
2022/12/30 11:36:17;;;;;;;;;3.00;1.33;;;;;11.35;81.28;99820.81;5028835;28;45532;-67
2022/12/30 11:38:53;;;;;;;;;1.00;1.00;;;;;11.29;81.71;99807.41;5030944;28;45420;-67
2022/12/30 11:41:18;;;;;;;;;2.00;0.00;;;;;11.38;82.37;99814.59;5016211;28;45605;-66
2022/12/30 11:43:48;;;;;;;;;2.67;2.00;;;;;11.41;82.48;99820.84;5016810;28;45524;-67
2022/12/30 11:46:17;;;;;;;;;4.00;2.00;;;;;11.44;81.67;99804.84;5027956;28;45610;-69
2022/12/30 11:48:55;;;;;;;;;1.00;1.00;;;;;11.38;82.63;99778.06;5000214;28;45551;-67
2022/12/30 11:51:28;;;;;;;;;1.00;1.00;;;;;11.39;82.45;99795.88;5027958;28;45507;-67
2022/12/30 11:54:11;;;;;;;;;2.00;1.00;;;;;11.53;82.78;99801.34;5016624;28;45702;-68
2022/12/30 11:57:20;;;;;;;;;3.00;1.67;;;;;11.53;83.21;99811.13;5021661;28;45610;-67
2022/12/30 11:59:48;;;;;;;;;0.67;0.67;;;;;11.56;82.94;99789.75;5026367;28;45312;-66
2022/12/30 12:02:25;;;;;;;;;2.00;2.00;;;;;11.52;83.13;99791.53;4999822;28;45428;-67
2022/12/30 12:04:51;;;;;;;;;1.00;1.00;;;;;11.57;83.42;99789.78;5026695;28;46027;-67
2022/12/30 12:07:16;;;;;;;;;3.00;2.00;;;;;11.61;83.21;99791.59;5024573;28;45456;-67
2022/12/30 12:09:52;;;;;;;;;1.00;1.00;;;;;11.60;83.61;99773.75;5025534;28;45356;-66
2022/12/30 12:12:22;;;;;;;;;2.00;0.00;;;;;11.70;83.23;99781.84;5026153;28;45608;-69
2022/12/30 12:14:56;;;;;;;;;3.00;2.67;;;;;11.69;82.75;99782.72;5031799;28;45728;-66
2022/12/30 12:17:22;;;;;;;;;2.00;2.00;;;;;11.77;83.67;99787.22;5029930;28;45629;-65
2022/12/30 12:20:14;;;;;;;;;1.00;1.00;;;;;11.80;82.94;99784.56;5014684;28;45475;-70
2022/12/30 12:22:47;;;;;;;;;2.33;2.00;;;;;11.85;83.10;99773.91;5027106;28;45339;-67
2022/12/30 12:25:26;;;;;;;;;3.67;3.00;;;;;11.89;83.70;99780.16;5021023;28;45363;-68
2022/12/30 12:27:53;;;;;;;;;1.00;1.00;;;;;11.92;82.99;99789.13;5024378;28;45472;-67
2022/12/30 12:30:22;;;;;;;;;1.33;1.00;;;;;11.95;82.83;99791.81;5027410;28;45707;-68
2022/12/30 12:33:16;;;;;;;;;4.00;1.33;;;;;11.95;83.53;99772.19;5014065;28;45564;-68
2022/12/30 12:35:53;;;;;;;;;2.67;1.00;;;;;12.00;84.56;99775.78;5021683;28;45351;-67